createdAt,value
2022-08-30T00:00:44.405Z,62.15
2022-08-30T00:03:18.295Z,62.51
2022-08-30T00:05:52.543Z,62.43
2022-08-30T00:08:27.724Z,62.33
2022-08-30T00:11:01.760Z,62.27
2022-08-30T00:13:36.757Z,62.03
2022-08-30T00:16:10.792Z,62.13
2022-08-30T00:18:44.460Z,62.29
2022-08-30T00:21:17.978Z,62.20
2022-08-30T00:23:51.199Z,62.43
2022-08-30T00:26:24.663Z,63.16
2022-08-30T00:28:59.056Z,63.21
2022-08-30T00:31:32.642Z,63.33
2022-08-30T00:34:06.752Z,63.50
2022-08-30T00:36:39.956Z,63.58
2022-08-30T00:39:13.588Z,63.64
2022-08-30T00:41:46.936Z,64.06
2022-08-30T00:44:20.226Z,64.19
2022-08-30T00:46:53.464Z,64.29
2022-08-30T00:49:27.404Z,64.61
2022-08-30T00:52:01.805Z,64.40
2022-08-30T00:54:38.195Z,64.72
2022-08-30T00:57:14.335Z,64.93
2022-08-30T00:59:50.380Z,64.84
2022-08-30T01:02:26.770Z,64.50
2022-08-30T01:05:02.003Z,65.50
2022-08-30T01:07:35.566Z,65.00
2022-08-30T01:10:11.780Z,64.64
2022-08-30T01:12:46.619Z,64.75
2022-08-30T01:15:19.924Z,64.77
2022-08-30T01:17:54.495Z,65.34
2022-08-30T01:23:17.035Z,65.13
2022-08-30T01:25:52.466Z,66.31
2022-08-30T01:28:29.260Z,66.69
2022-08-30T01:31:02.693Z,67.48
2022-08-30T01:33:37.612Z,67.44
2022-08-30T01:36:14.373Z,67.35
2022-08-30T01:38:50.087Z,67.00
2022-08-30T01:41:26.078Z,67.51
2022-08-30T01:44:03.627Z,67.11
2022-08-30T01:46:39.706Z,66.74
2022-08-30T01:49:16.359Z,66.57
2022-08-30T01:51:49.654Z,67.15
2022-08-30T01:54:27.262Z,66.88
2022-08-30T01:57:00.299Z,67.47
2022-08-30T01:59:33.708Z,67.85
2022-08-30T02:02:07.730Z,67.88
2022-08-30T02:04:40.942Z,67.56
2022-08-30T02:07:14.234Z,67.50
2022-08-30T02:09:50.192Z,67.29
2022-08-30T02:12:24.967Z,67.56
2022-08-30T02:14:58.315Z,67.65
2022-08-30T02:17:33.263Z,67.53
2022-08-30T02:20:08.906Z,68.05
2022-08-30T02:22:47.577Z,67.82
2022-08-30T02:25:21.173Z,68.08
2022-08-30T02:27:52.655Z,68.24
2022-08-30T02:30:26.109Z,68.58
2022-08-30T02:32:59.383Z,68.78
2022-08-30T02:35:33.647Z,68.59
2022-08-30T02:38:07.180Z,68.38
2022-08-30T02:40:44.766Z,68.81
2022-08-30T02:43:18.547Z,68.31
2022-08-30T02:45:52.089Z,68.18
2022-08-30T02:48:25.657Z,68.30
2022-08-30T02:51:00.494Z,68.71
2022-08-30T02:53:34.075Z,68.63
2022-08-30T02:56:08.103Z,68.64
2022-08-30T02:58:42.943Z,68.77
2022-08-30T03:01:18.634Z,68.85
2022-08-30T03:03:52.166Z,69.18
2022-08-30T03:06:28.228Z,69.00
2022-08-30T03:09:01.831Z,68.52
2022-08-30T03:11:36.435Z,68.16
2022-08-30T03:14:09.776Z,68.45
2022-08-30T03:16:43.055Z,69.09
2022-08-30T03:19:16.349Z,69.35
2022-08-30T03:21:50.598Z,68.95
2022-08-30T03:24:24.154Z,68.77
2022-08-30T03:26:57.335Z,68.96
2022-08-30T03:29:31.781Z,68.78
2022-08-30T03:32:05.840Z,68.69
2022-08-30T03:34:39.972Z,68.58
2022-08-30T03:37:13.667Z,68.56
2022-08-30T03:39:47.266Z,68.54
2022-08-30T03:42:22.078Z,68.55
2022-08-30T03:44:57.080Z,68.55
2022-08-30T03:47:30.735Z,68.48
2022-08-30T03:50:05.209Z,69.03
2022-08-30T03:52:40.974Z,69.29
2022-08-30T03:55:15.422Z,69.17
2022-08-30T03:57:48.609Z,69.08
2022-08-30T04:00:24.307Z,69.19
2022-08-30T04:02:57.776Z,69.16
2022-08-30T04:05:35.141Z,69.39
2022-08-30T04:08:09.345Z,69.87
2022-08-30T04:10:42.536Z,69.86
2022-08-30T04:13:15.990Z,70.07
2022-08-30T04:15:49.396Z,69.94
2022-08-30T04:18:23.101Z,69.50
2022-08-30T04:20:56.288Z,69.41
2022-08-30T04:23:29.453Z,69.22
2022-08-30T04:26:02.673Z,69.07
2022-08-30T04:28:36.255Z,69.18
2022-08-30T04:31:13.419Z,69.20
2022-08-30T04:33:49.365Z,69.17
2022-08-30T04:36:27.141Z,68.80
2022-08-30T04:39:03.012Z,68.43
2022-08-30T04:41:40.788Z,68.37
2022-08-30T04:44:19.525Z,68.37
2022-08-30T04:46:52.219Z,68.12
2022-08-30T04:49:25.444Z,67.90
2022-08-30T04:51:59.380Z,67.96
2022-08-30T04:54:34.546Z,67.93
2022-08-30T04:57:09.934Z,67.69
2022-08-30T04:59:43.283Z,67.35
2022-08-30T05:02:16.554Z,67.07
2022-08-30T05:05:07.574Z,66.87
2022-08-30T05:07:41.613Z,66.84
2022-08-30T05:10:15.648Z,66.70
2022-08-30T05:12:49.099Z,66.61
2022-08-30T05:15:24.881Z,66.30
2022-08-30T05:18:01.072Z,66.08
2022-08-30T05:20:36.329Z,65.91
2022-08-30T05:23:12.287Z,65.59
2022-08-30T05:25:46.940Z,65.50
2022-08-30T05:28:24.238Z,65.22
2022-08-30T05:30:59.547Z,65.05
2022-08-30T05:33:38.821Z,64.87
2022-08-30T05:36:11.882Z,64.75
2022-08-30T05:38:47.853Z,64.52
2022-08-30T05:41:30.760Z,64.42
2022-08-30T05:44:06.433Z,64.27
2022-08-30T05:46:43.813Z,64.02
2022-08-30T05:49:37.858Z,63.86
2022-08-30T05:52:12.948Z,63.56
2022-08-30T05:54:46.699Z,63.30
2022-08-30T05:57:22.818Z,63.06
2022-08-30T05:59:56.159Z,62.82
2022-08-30T06:05:19.644Z,62.37
2022-08-30T06:07:53.170Z,61.94
2022-08-30T06:10:26.577Z,61.81
2022-08-30T06:13:01.882Z,61.56
2022-08-30T06:15:35.612Z,61.16
2022-08-30T06:18:09.141Z,60.92
2022-08-30T06:20:44.433Z,60.69
2022-08-30T06:23:18.691Z,60.00
2022-08-30T06:25:52.187Z,59.95
2022-08-30T06:28:25.438Z,59.74
2022-08-30T06:31:00.651Z,59.40
2022-08-30T06:33:33.992Z,58.14
2022-08-30T06:36:08.887Z,56.56
2022-08-30T06:38:43.109Z,54.00
2022-08-30T06:41:19.207Z,51.02
2022-08-30T06:43:52.904Z,47.54
2022-08-30T06:46:28.797Z,44.77
2022-08-30T06:49:03.269Z,43.85
2022-08-30T06:51:39.843Z,42.96
2022-08-30T06:54:15.156Z,41.48
2022-08-30T06:56:58.147Z,40.58
2022-08-30T06:59:23.899Z,39.34
2022-08-30T07:01:58.397Z,38.67
2022-08-30T07:04:31.750Z,38.46
2022-08-30T07:07:05.491Z,37.70
2022-08-30T07:09:41.709Z,37.91
2022-08-30T07:12:16.062Z,36.50
2022-08-30T07:14:49.966Z,35.43
2022-08-30T07:17:42.269Z,34.58
2022-08-30T07:20:18.674Z,33.59
2022-08-30T07:22:57.194Z,35.29
2022-08-30T07:25:30.806Z,37.66
2022-08-30T07:28:04.179Z,37.22
2022-08-30T07:30:38.576Z,34.78
2022-08-30T07:33:12.134Z,32.60
2022-08-30T07:35:45.509Z,31.96
2022-08-30T07:38:18.999Z,31.91
2022-08-30T07:40:53.134Z,31.79
2022-08-30T07:43:27.208Z,31.28
2022-08-30T07:46:05.457Z,32.39
2022-08-30T07:48:39.050Z,32.45
2022-08-30T07:51:18.357Z,31.66
2022-08-30T07:53:52.161Z,32.00
2022-08-30T07:56:26.478Z,30.86
2022-08-30T07:59:00.934Z,30.83
2022-08-30T08:04:16.541Z,30.19
2022-08-30T08:06:50.209Z,28.48
2022-08-30T08:09:23.549Z,28.19
2022-08-30T08:11:57.091Z,28.80
2022-08-30T08:14:30.418Z,28.69
2022-08-30T08:17:05.188Z,28.22
2022-08-30T08:19:38.374Z,27.80
2022-08-30T08:22:20.828Z,27.60
2022-08-30T08:24:47.544Z,27.12
2022-08-30T08:27:24.951Z,26.22
2022-08-30T08:29:58.522Z,26.13
2022-08-30T08:32:31.808Z,26.68
2022-08-30T08:35:05.423Z,26.58
2022-08-30T08:37:39.282Z,26.96
2022-08-30T08:40:17.111Z,27.46
2022-08-30T08:43:02.872Z,27.62
2022-08-30T08:45:49.452Z,27.38
2022-08-30T08:48:45.556Z,27.06
2022-08-30T08:51:24.784Z,26.27
2022-08-30T08:54:02.022Z,25.86
2022-08-30T08:56:38.014Z,24.51
2022-08-30T08:59:13.430Z,24.02
2022-08-30T09:01:48.063Z,23.83
2022-08-30T09:04:24.230Z,23.86
2022-08-30T09:07:01.121Z,23.11
2022-08-30T09:09:38.271Z,23.15
2022-08-30T09:12:15.281Z,22.32
2022-08-30T09:14:51.389Z,22.71
2022-08-30T09:17:26.506Z,22.65
2022-08-30T09:20:03.258Z,22.99
2022-08-30T09:22:39.574Z,23.44
2022-08-30T09:25:17.679Z,23.64
2022-08-30T09:27:54.108Z,22.44
2022-08-30T09:30:29.741Z,21.87
2022-08-30T09:33:05.453Z,21.74
2022-08-30T09:35:41.804Z,21.42
2022-08-30T09:38:20.249Z,21.32
2022-08-30T09:40:55.838Z,21.04
2022-08-30T09:43:31.263Z,20.84
2022-08-30T09:46:16.457Z,20.34
2022-08-30T09:48:48.872Z,19.79
2022-08-30T09:51:41.096Z,19.45
2022-08-30T09:54:21.158Z,20.02
2022-08-30T09:57:01.855Z,20.50
2022-08-30T09:59:46.796Z,20.50
2022-08-30T10:02:37.485Z,20.63
2022-08-30T10:05:14.186Z,19.64
2022-08-30T10:07:53.562Z,19.15
2022-08-30T10:10:30.949Z,18.42
2022-08-30T10:13:15.458Z,19.46
2022-08-30T10:15:51.984Z,20.06
2022-08-30T10:18:28.264Z,20.71
2022-08-30T10:21:06.667Z,20.99
2022-08-30T10:23:43.133Z,20.59
2022-08-30T10:26:19.430Z,19.50
2022-08-30T10:28:55.545Z,20.05
2022-08-30T10:31:31.737Z,21.09
2022-08-30T10:34:08.801Z,20.75
2022-08-30T10:36:46.314Z,21.43
2022-08-30T10:39:23.423Z,21.45
2022-08-30T10:42:06.095Z,20.97
2022-08-30T10:44:44.549Z,21.29
2022-08-30T10:47:24.190Z,23.18
2022-08-30T10:50:04.559Z,24.39
2022-08-30T10:52:42.599Z,22.78
2022-08-30T10:55:22.289Z,20.64
2022-08-30T10:57:57.209Z,19.54
2022-08-30T11:00:35.050Z,19.94
2022-08-30T11:03:30.984Z,20.44
2022-08-30T11:06:12.795Z,21.74
2022-08-30T11:09:04.802Z,21.42
2022-08-30T11:11:48.496Z,20.14
2022-08-30T11:14:25.680Z,19.48
2022-08-30T11:17:03.152Z,19.02
2022-08-30T11:19:41.349Z,18.54
2022-08-30T11:22:18.568Z,18.17
2022-08-30T11:25:11.451Z,17.76
2022-08-30T11:27:49.609Z,16.98
2022-08-30T11:30:50.610Z,16.46
2022-08-30T11:37:09.576Z,17.49
2022-08-30T11:40:04.673Z,16.22
2022-08-30T11:42:42.996Z,16.12
2022-08-30T11:45:48.132Z,16.89
2022-08-30T11:48:55.145Z,18.79
2022-08-30T11:54:46.484Z,22.79
2022-08-30T11:57:24.779Z,23.28
2022-08-30T12:00:04.282Z,23.07
2022-08-30T12:05:59.598Z,25.31
2022-08-30T12:09:08.277Z,25.78
2022-08-30T12:12:10.206Z,25.93
2022-08-30T12:14:55.885Z,26.07
2022-08-30T12:17:53.591Z,26.25
2022-08-30T12:20:30.471Z,26.57
2022-08-30T12:23:13.461Z,26.68
2022-08-30T12:25:46.976Z,26.83
2022-08-30T12:28:24.625Z,27.76
2022-08-30T12:30:59.580Z,28.96
2022-08-30T12:33:40.359Z,29.12
2022-08-30T12:36:17.154Z,27.06
2022-08-30T12:38:51.690Z,24.54
2022-08-30T12:41:28.331Z,22.16
2022-08-30T12:44:03.482Z,19.72
2022-08-30T12:46:38.813Z,18.36
2022-08-30T12:49:14.799Z,17.45
2022-08-30T12:51:49.531Z,16.78
2022-08-30T12:54:25.274Z,16.44
2022-08-30T12:59:59.661Z,16.55
2022-08-30T13:02:33.123Z,16.45
2022-08-30T13:05:06.980Z,16.15
2022-08-30T13:07:40.106Z,19.88
2022-08-30T13:10:20.054Z,15.48
2022-08-30T13:13:05.549Z,14.97
2022-08-30T13:15:43.751Z,15.02
2022-08-30T13:18:30.092Z,15.11
2022-08-30T13:21:25.613Z,14.63
2022-08-30T13:24:02.453Z,14.70
2022-08-30T13:26:37.795Z,14.73
2022-08-30T13:29:17.972Z,14.54
2022-08-30T13:31:51.561Z,14.28
2022-08-30T13:34:25.043Z,14.17
2022-08-30T13:37:00.028Z,14.58
2022-08-30T13:39:33.563Z,15.08
2022-08-30T13:48:43.483Z,16.38
2022-08-30T13:51:39.172Z,16.67
2022-08-30T13:54:12.608Z,17.25
2022-08-30T13:56:46.696Z,17.87
2022-08-30T13:59:22.295Z,19.18
2022-08-30T14:02:12.883Z,20.00
2022-08-30T14:04:32.974Z,20.11
2022-08-30T14:07:19.839Z,20.58
2022-08-30T14:09:42.075Z,20.32
2022-08-30T14:15:03.217Z,19.85
2022-08-30T14:17:38.651Z,19.62
2022-08-30T14:20:16.795Z,19.54
2022-08-30T14:22:49.339Z,19.74
2022-08-30T14:25:23.024Z,19.68
2022-08-30T14:27:58.502Z,20.27
2022-08-30T14:30:32.181Z,20.09
2022-08-30T14:33:06.961Z,20.16
2022-08-30T14:35:42.565Z,20.26
2022-08-30T14:38:16.413Z,20.26
2022-08-30T14:40:54.586Z,20.33
2022-08-30T14:43:32.319Z,20.57
2022-08-30T14:46:07.206Z,21.23
2022-08-30T14:48:43.063Z,22.07
2022-08-30T14:51:19.276Z,23.00
2022-08-30T14:57:19.398Z,24.47
2022-08-30T15:20:28.729Z,27.29
2022-08-30T15:23:22.975Z,28.23
2022-08-30T15:26:05.826Z,29.34
2022-08-30T15:29:12.327Z,30.23
2022-08-30T15:32:32.053Z,30.02
2022-08-30T15:35:52.959Z,30.37
2022-08-30T15:38:42.923Z,31.11
2022-08-30T15:41:23.495Z,31.86
2022-08-30T15:43:58.894Z,31.89
2022-08-30T15:46:34.876Z,31.76
2022-08-30T15:49:11.494Z,32.15
2022-08-30T15:51:47.532Z,31.62
2022-08-30T15:54:24.792Z,32.23
2022-08-30T15:57:01.702Z,32.90
2022-08-30T15:59:36.127Z,32.64
2022-08-30T16:02:11.467Z,32.88
2022-08-30T16:04:49.165Z,33.50
2022-08-30T16:07:25.451Z,34.13
2022-08-30T16:09:59.247Z,32.79
2022-08-30T16:12:37.215Z,32.93
2022-08-30T16:15:14.149Z,33.53
2022-08-30T16:18:05.072Z,33.45
2022-08-30T16:20:39.714Z,33.12
2022-08-30T16:23:13.432Z,33.01
2022-08-30T16:25:47.088Z,33.20
2022-08-30T16:28:20.814Z,33.48
2022-08-30T16:31:12.182Z,33.51
2022-08-30T16:33:41.157Z,33.57
2022-08-30T16:36:12.650Z,33.59
2022-08-30T16:38:46.299Z,33.58
2022-08-30T16:41:24.083Z,33.78
2022-08-30T16:44:03.644Z,33.88
2022-08-30T16:46:37.305Z,33.86
2022-08-30T16:49:14.769Z,33.87
2022-08-30T16:51:48.167Z,34.00
2022-08-30T16:54:24.297Z,34.17
2022-08-30T16:56:57.681Z,34.29
2022-08-30T16:59:31.059Z,34.43
2022-08-30T17:02:05.048Z,34.45
2022-08-30T17:04:38.517Z,34.62
2022-08-30T17:07:13.815Z,34.73
2022-08-30T17:09:47.842Z,34.91
2022-08-30T17:12:22.179Z,35.09
2022-08-30T17:14:58.101Z,35.20
2022-08-30T17:17:43.714Z,35.50
2022-08-30T17:20:24.071Z,35.72
2022-08-30T17:23:02.483Z,35.79
2022-08-30T17:25:41.183Z,36.11
2022-08-30T17:28:16.706Z,36.28
2022-08-30T17:30:57.362Z,36.39
2022-08-30T17:33:32.615Z,36.40
2022-08-30T17:36:09.004Z,36.46
2022-08-30T17:38:45.108Z,36.64
2022-08-30T17:41:20.900Z,36.81
2022-08-30T17:43:59.375Z,36.89
2022-08-30T17:46:47.182Z,36.83
2022-08-30T17:49:22.217Z,36.90
2022-08-30T17:51:57.156Z,36.88
2022-08-30T17:54:37.479Z,36.96
2022-08-30T17:57:13.224Z,37.12
2022-08-30T17:59:50.290Z,37.29
2022-08-30T18:02:30.263Z,37.56
2022-08-30T18:08:00.688Z,38.19
2022-08-30T18:10:34.707Z,38.28
2022-08-30T18:16:06.727Z,38.59
2022-08-30T18:18:52.629Z,38.39
2022-08-30T18:21:33.404Z,38.58
2022-08-30T18:24:08.636Z,38.67
2022-08-30T18:26:44.809Z,38.96
2022-08-30T18:29:26.296Z,39.42
2022-08-30T18:31:59.415Z,39.71
2022-08-30T18:34:38.245Z,39.77
2022-08-30T18:37:14.029Z,40.22
2022-08-30T18:39:48.478Z,40.62
2022-08-30T18:42:23.113Z,39.65
2022-08-30T18:44:56.286Z,41.43
2022-08-30T18:47:29.919Z,41.85
2022-08-30T18:50:05.130Z,42.25
2022-08-30T18:52:38.871Z,42.30
2022-08-30T18:55:14.032Z,42.32
2022-08-30T18:57:49.228Z,42.78
2022-08-30T19:00:22.706Z,42.63
2022-08-30T19:02:55.972Z,42.51
2022-08-30T19:05:29.831Z,42.39
2022-08-30T19:08:03.860Z,42.41
2022-08-30T19:10:38.831Z,42.48
2022-08-30T19:13:13.722Z,42.45
2022-08-30T19:15:47.228Z,42.27
2022-08-30T19:18:21.201Z,43.51
2022-08-30T19:20:54.411Z,44.45
2022-08-30T19:23:34.089Z,44.27
2022-08-30T19:26:04.129Z,44.01
2022-08-30T19:28:38.151Z,44.05
2022-08-30T19:31:11.393Z,43.91
2022-08-30T19:33:44.759Z,44.02
2022-08-30T19:36:18.075Z,43.87
2022-08-30T19:38:51.432Z,43.83
2022-08-30T19:41:25.146Z,43.73
2022-08-30T19:44:01.246Z,44.14
2022-08-30T19:46:34.477Z,45.16
2022-08-30T19:49:10.651Z,46.34
2022-08-30T19:51:46.512Z,47.35
2022-08-30T19:54:20.311Z,47.31
2022-08-30T19:56:54.645Z,47.46
2022-08-30T19:59:28.054Z,47.63
2022-08-30T20:02:23.197Z,47.66
2022-08-30T20:04:58.174Z,47.94
2022-08-30T20:07:34.526Z,48.21
2022-08-30T20:10:10.975Z,48.32
2022-08-30T20:12:47.556Z,48.86
2022-08-30T20:15:20.776Z,49.79
2022-08-30T20:18:05.192Z,49.94
2022-08-30T20:20:29.782Z,49.79
2022-08-30T20:23:03.033Z,49.60
2022-08-30T20:25:38.110Z,49.83
2022-08-30T20:28:12.081Z,49.66
2022-08-30T20:30:45.541Z,49.51
2022-08-30T20:33:23.598Z,49.75
2022-08-30T20:36:02.188Z,49.60
2022-08-30T20:38:35.810Z,49.32
2022-08-30T20:41:16.868Z,49.46
2022-08-30T20:43:50.452Z,49.31
2022-08-30T20:46:23.906Z,49.44
2022-08-30T20:48:59.865Z,49.46
2022-08-30T20:51:33.284Z,49.20
2022-08-30T20:54:09.585Z,49.33
2022-08-30T20:56:43.225Z,49.13
2022-08-30T20:59:16.584Z,49.41
2022-08-30T21:01:50.151Z,49.47
2022-08-30T21:04:23.725Z,49.53
2022-08-30T21:06:58.063Z,49.44
2022-08-30T21:09:31.684Z,49.74
2022-08-30T21:12:09.913Z,49.91
2022-08-30T21:14:42.232Z,49.90
2022-08-30T21:17:18.041Z,49.82
2022-08-30T21:19:52.777Z,49.83
2022-08-30T21:22:28.798Z,49.99
2022-08-30T21:25:02.862Z,50.41
2022-08-30T21:27:37.099Z,49.95
2022-08-30T21:30:12.803Z,50.86
2022-08-30T21:32:47.792Z,51.39
2022-08-30T21:35:40.333Z,51.26
2022-08-30T21:38:17.632Z,51.87
2022-08-30T21:40:51.283Z,52.37
2022-08-30T21:43:24.675Z,53.04
2022-08-30T21:45:58.090Z,53.22
2022-08-30T21:48:31.363Z,53.35
2022-08-30T21:51:09.259Z,53.91
2022-08-30T21:53:42.640Z,53.95
2022-08-30T21:56:21.651Z,53.35
2022-08-30T21:59:00.285Z,53.61
2022-08-30T22:01:34.470Z,53.71
2022-08-30T22:04:11.674Z,54.63
2022-08-30T22:06:50.623Z,55.26
2022-08-30T22:09:26.866Z,55.15
2022-08-30T22:12:03.358Z,55.56
2022-08-30T22:14:38.743Z,55.27
2022-08-30T22:17:12.103Z,55.04
2022-08-30T22:19:45.391Z,55.31
2022-08-30T22:22:20.216Z,55.48
2022-08-30T22:24:53.799Z,56.81
2022-08-30T22:27:28.418Z,56.80
2022-08-30T22:30:01.943Z,56.07
2022-08-30T22:32:35.204Z,56.75
2022-08-30T22:35:10.624Z,56.91
2022-08-30T22:37:47.675Z,56.81
2022-08-30T22:40:20.778Z,56.92
2022-08-30T22:42:54.267Z,56.79
2022-08-30T22:45:27.668Z,57.20
2022-08-30T22:48:01.050Z,57.32
2022-08-30T22:50:34.352Z,57.29
2022-08-30T22:53:07.788Z,57.93
2022-08-30T22:55:43.202Z,58.17
2022-08-30T22:58:18.225Z,58.12
2022-08-30T23:00:54.919Z,57.97
2022-08-30T23:03:26.697Z,58.16
2022-08-30T23:06:00.059Z,58.18
2022-08-30T23:08:33.212Z,58.58
2022-08-30T23:11:06.772Z,58.96
2022-08-30T23:13:43.783Z,58.86
2022-08-30T23:16:18.147Z,58.74
2022-08-30T23:18:51.991Z,58.90
2022-08-30T23:21:28.912Z,58.57
2022-08-30T23:24:21.491Z,59.26
2022-08-30T23:27:13.062Z,59.48
2022-08-30T23:30:04.199Z,59.81
2022-08-30T23:32:55.170Z,59.20
2022-08-30T23:35:47.153Z,59.88
2022-08-30T23:38:39.188Z,60.24
2022-08-30T23:41:33.976Z,60.43
2022-08-30T23:44:23.286Z,60.32
2022-08-30T23:47:14.424Z,60.07
2022-08-30T23:50:05.314Z,60.46
2022-08-30T23:52:56.521Z,60.18
2022-08-30T23:55:47.445Z,60.11
2022-08-30T23:58:38.386Z,59.67
